sensor_id;sensor_type;location;lat;lon;timestamp;P1;durP1;ratioP1;P2;durP2;ratioP2
34453;SDS011;60061;52.080;5.312;2022-08-01T00:00:22;5.8;;;4.2;;
34453;SDS011;60061;52.080;5.312;2022-08-01T00:02:10;6.2;;;3.8;;
34453;SDS011;60061;52.080;5.312;2022-08-01T00:03:56;4.91;;;3.4;;
34453;SDS011;60061;52.080;5.312;2022-08-01T00:07:31;4.91;;;3.7;;
34453;SDS011;60061;52.080;5.312;2022-08-01T00:09:17;6.7;;;3.8;;
34453;SDS011;60061;52.080;5.312;2022-08-01T00:11:04;4.91;;;3.6;;
34453;SDS011;60061;52.080;5.312;2022-08-01T00:12:51;6.7;;;4.0;;
34453;SDS011;60061;52.080;5.312;2022-08-01T00:14:37;4.2;;;3.4;;
34453;SDS011;60061;52.080;5.312;2022-08-01T00:18:11;5.11;;;3.8;;
34453;SDS011;60061;52.080;5.312;2022-08-01T00:19:57;4.91;;;3.7;;
34453;SDS011;60061;52.080;5.312;2022-08-01T00:21:44;5.3;;;4.0;;
34453;SDS011;60061;52.080;5.312;2022-08-01T00:23:32;6.0;;;4.0;;
34453;SDS011;60061;52.080;5.312;2022-08-01T00:25:18;6.5;;;4.5;;
34453;SDS011;60061;52.080;5.312;2022-08-01T00:27:04;7.3;;;4.7;;
34453;SDS011;60061;52.080;5.312;2022-08-01T00:30:37;6.9;;;4.61;;
34453;SDS011;60061;52.080;5.312;2022-08-01T00:32:23;10.3;;;5.3;;
34453;SDS011;60061;52.080;5.312;2022-08-01T00:34:10;9.31;;;5.2;;
34453;SDS011;60061;52.080;5.312;2022-08-01T00:35:57;8.5;;;5.6;;
34453;SDS011;60061;52.080;5.312;2022-08-01T00:37:44;9.1;;;5.5;;
34453;SDS011;60061;52.080;5.312;2022-08-01T00:39:32;9.21;;;4.91;;
34453;SDS011;60061;52.080;5.312;2022-08-01T00:43:05;9.21;;;5.4;;
34453;SDS011;60061;52.080;5.312;2022-08-01T00:44:51;8.71;;;5.5;;
34453;SDS011;60061;52.080;5.312;2022-08-01T00:46:37;7.1;;;4.8;;
34453;SDS011;60061;52.080;5.312;2022-08-01T00:48:23;8.2;;;5.0;;
34453;SDS011;60061;52.080;5.312;2022-08-01T00:50:09;7.8;;;5.3;;
34453;SDS011;60061;52.080;5.312;2022-08-01T00:53:45;8.5;;;5.2;;
34453;SDS011;60061;52.080;5.312;2022-08-01T00:55:31;7.2;;;4.8;;
34453;SDS011;60061;52.080;5.312;2022-08-01T00:57:18;8.1;;;5.4;;
34453;SDS011;60061;52.080;5.312;2022-08-01T00:59:05;9.1;;;5.2;;
34453;SDS011;60061;52.080;5.312;2022-08-01T01:00:53;9.5;;;5.5;;
34453;SDS011;60061;52.080;5.312;2022-08-01T01:02:39;7.0;;;4.91;;
34453;SDS011;60061;52.080;5.312;2022-08-01T01:06:15;9.4;;;5.5;;
34453;SDS011;60061;52.080;5.312;2022-08-01T01:08:13;10.4;;;5.5;;
34453;SDS011;60061;52.080;5.312;2022-08-01T01:10:08;7.9;;;5.3;;
34453;SDS011;60061;52.080;5.312;2022-08-01T01:12:02;10.21;;;6.2;;
34453;SDS011;60061;52.080;5.312;2022-08-01T01:14:00;11.0;;;6.3;;
34453;SDS011;60061;52.080;5.312;2022-08-01T01:15:55;10.9;;;6.3;;
34453;SDS011;60061;52.080;5.312;2022-08-01T01:17:47;9.71;;;5.8;;
34453;SDS011;60061;52.080;5.312;2022-08-01T01:19:44;10.6;;;6.3;;
34453;SDS011;60061;52.080;5.312;2022-08-01T01:21:35;11.9;;;6.1;;
34453;SDS011;60061;52.080;5.312;2022-08-01T01:23:40;11.5;;;6.2;;
34453;SDS011;60061;52.080;5.312;2022-08-01T01:25:43;9.81;;;5.8;;
34453;SDS011;60061;52.080;5.312;2022-08-01T01:27:41;10.5;;;6.3;;
34453;SDS011;60061;52.080;5.312;2022-08-01T01:31:28;10.3;;;6.5;;
34453;SDS011;60061;52.080;5.312;2022-08-01T01:33:19;11.4;;;6.7;;
34453;SDS011;60061;52.080;5.312;2022-08-01T01:35:10;11.4;;;7.0;;
34453;SDS011;60061;52.080;5.312;2022-08-01T01:37:08;11.7;;;7.5;;
34453;SDS011;60061;52.080;5.312;2022-08-01T01:39:06;10.7;;;6.6;;
34453;SDS011;60061;52.080;5.312;2022-08-01T01:40:53;12.0;;;7.5;;
34453;SDS011;60061;52.080;5.312;2022-08-01T01:42:42;10.6;;;7.1;;
34453;SDS011;60061;52.080;5.312;2022-08-01T01:44:30;12.9;;;7.5;;
34453;SDS011;60061;52.080;5.312;2022-08-01T01:48:10;11.8;;;6.8;;
34453;SDS011;60061;52.080;5.312;2022-08-01T01:50:00;11.6;;;7.1;;
34453;SDS011;60061;52.080;5.312;2022-08-01T01:51:50;12.1;;;7.3;;
34453;SDS011;60061;52.080;5.312;2022-08-01T01:53:39;13.1;;;7.3;;
34453;SDS011;60061;52.080;5.312;2022-08-01T01:55:27;12.9;;;7.5;;
34453;SDS011;60061;52.080;5.312;2022-08-01T01:57:16;13.3;;;7.4;;
34453;SDS011;60061;52.080;5.312;2022-08-01T01:59:04;12.0;;;7.7;;
34453;SDS011;60061;52.080;5.312;2022-08-01T02:02:40;11.1;;;7.3;;
34453;SDS011;60061;52.080;5.312;2022-08-01T02:04:28;11.4;;;7.2;;
34453;SDS011;60061;52.080;5.312;2022-08-01T02:06:18;13.1;;;7.6;;
34453;SDS011;60061;52.080;5.312;2022-08-01T02:08:05;13.2;;;7.4;;
34453;SDS011;60061;52.080;5.312;2022-08-01T02:09:53;13.4;;;7.5;;
34453;SDS011;60061;52.080;5.312;2022-08-01T02:11:41;12.1;;;7.6;;
34453;SDS011;60061;52.080;5.312;2022-08-01T02:15:17;13.4;;;7.5;;
34453;SDS011;60061;52.080;5.312;2022-08-01T02:17:06;16.0;;;8.2;;
34453;SDS011;60061;52.080;5.312;2022-08-01T02:18:57;13.5;;;7.4;;
34453;SDS011;60061;52.080;5.312;2022-08-01T02:20:44;13.5;;;7.7;;
34453;SDS011;60061;52.080;5.312;2022-08-01T02:22:33;14.5;;;8.31;;
34453;SDS011;60061;52.080;5.312;2022-08-01T02:24:31;15.0;;;7.9;;
34453;SDS011;60061;52.080;5.312;2022-08-01T02:26:24;14.6;;;7.9;;
34453;SDS011;60061;52.080;5.312;2022-08-01T02:30:05;15.0;;;8.71;;
34453;SDS011;60061;52.080;5.312;2022-08-01T02:31:54;14.3;;;8.2;;
34453;SDS011;60061;52.080;5.312;2022-08-01T02:33:44;15.1;;;8.6;;
34453;SDS011;60061;52.080;5.312;2022-08-01T02:35:35;13.8;;;8.2;;
34453;SDS011;60061;52.080;5.312;2022-08-01T02:37:27;13.3;;;8.0;;
34453;SDS011;60061;52.080;5.312;2022-08-01T02:39:19;13.8;;;7.9;;
34453;SDS011;60061;52.080;5.312;2022-08-01T02:41:09;15.4;;;8.2;;
34453;SDS011;60061;52.080;5.312;2022-08-01T02:42:59;15.0;;;8.4;;
34453;SDS011;60061;52.080;5.312;2022-08-01T02:46:38;13.3;;;8.2;;
34453;SDS011;60061;52.080;5.312;2022-08-01T02:48:29;13.1;;;7.8;;
34453;SDS011;60061;52.080;5.312;2022-08-01T02:50:19;11.5;;;7.5;;
34453;SDS011;60061;52.080;5.312;2022-08-01T02:52:10;15.9;;;7.9;;
34453;SDS011;60061;52.080;5.312;2022-08-01T02:54:01;15.2;;;7.9;;
34453;SDS011;60061;52.080;5.312;2022-08-01T02:55:51;13.5;;;7.8;;
34453;SDS011;60061;52.080;5.312;2022-08-01T02:57:40;12.5;;;7.3;;
34453;SDS011;60061;52.080;5.312;2022-08-01T03:01:19;13.1;;;7.1;;
34453;SDS011;60061;52.080;5.312;2022-08-01T03:03:08;15.0;;;7.2;;
34453;SDS011;60061;52.080;5.312;2022-08-01T03:04:57;14.1;;;7.6;;
34453;SDS011;60061;52.080;5.312;2022-08-01T03:06:46;13.4;;;7.2;;
34453;SDS011;60061;52.080;5.312;2022-08-01T03:08:33;11.0;;;6.9;;
34453;SDS011;60061;52.080;5.312;2022-08-01T03:10:23;12.2;;;7.0;;
34453;SDS011;60061;52.080;5.312;2022-08-01T03:14:12;12.3;;;6.9;;
34453;SDS011;60061;52.080;5.312;2022-08-01T03:16:00;14.1;;;7.6;;
34453;SDS011;60061;52.080;5.312;2022-08-01T03:17:51;12.9;;;7.6;;
34453;SDS011;60061;52.080;5.312;2022-08-01T03:19:40;13.6;;;6.8;;
34453;SDS011;60061;52.080;5.312;2022-08-01T03:21:30;11.4;;;6.9;;
34453;SDS011;60061;52.080;5.312;2022-08-01T03:23:19;10.6;;;6.4;;
34453;SDS011;60061;52.080;5.312;2022-08-01T03:25:08;12.7;;;7.6;;
34453;SDS011;60061;52.080;5.312;2022-08-01T03:26:57;11.7;;;6.9;;
34453;SDS011;60061;52.080;5.312;2022-08-01T03:30:33;12.5;;;7.7;;
34453;SDS011;60061;52.080;5.312;2022-08-01T03:32:22;10.8;;;7.1;;
34453;SDS011;60061;52.080;5.312;2022-08-01T03:34:10;10.8;;;6.8;;
34453;SDS011;60061;52.080;5.312;2022-08-01T03:35:58;11.4;;;6.9;;
34453;SDS011;60061;52.080;5.312;2022-08-01T03:37:48;11.2;;;6.9;;
34453;SDS011;60061;52.080;5.312;2022-08-01T03:39:40;14.3;;;7.6;;
34453;SDS011;60061;52.080;5.312;2022-08-01T03:41:33;13.1;;;7.3;;
34453;SDS011;60061;52.080;5.312;2022-08-01T03:45:25;12.8;;;8.1;;
34453;SDS011;60061;52.080;5.312;2022-08-01T03:47:13;13.4;;;7.7;;
34453;SDS011;60061;52.080;5.312;2022-08-01T03:49:06;13.4;;;7.8;;
34453;SDS011;60061;52.080;5.312;2022-08-01T03:51:08;12.4;;;7.8;;
34453;SDS011;60061;52.080;5.312;2022-08-01T03:54:46;11.8;;;7.7;;
34453;SDS011;60061;52.080;5.312;2022-08-01T03:56:38;11.5;;;7.8;;
34453;SDS011;60061;52.080;5.312;2022-08-01T03:58:27;14.1;;;8.5;;
34453;SDS011;60061;52.080;5.312;2022-08-01T04:02:05;15.2;;;8.6;;
34453;SDS011;60061;52.080;5.312;2022-08-01T04:03:53;14.8;;;8.31;;
34453;SDS011;60061;52.080;5.312;2022-08-01T04:05:40;11.2;;;7.7;;
34453;SDS011;60061;52.080;5.312;2022-08-01T04:07:28;11.9;;;7.8;;
34453;SDS011;60061;52.080;5.312;2022-08-01T04:09:16;12.5;;;7.9;;
34453;SDS011;60061;52.080;5.312;2022-08-01T04:11:03;12.6;;;8.1;;
34453;SDS011;60061;52.080;5.312;2022-08-01T04:14:38;12.0;;;7.5;;
34453;SDS011;60061;52.080;5.312;2022-08-01T04:16:24;11.2;;;7.3;;
34453;SDS011;60061;52.080;5.312;2022-08-01T04:18:11;12.2;;;7.4;;
34453;SDS011;60061;52.080;5.312;2022-08-01T04:19:57;11.4;;;7.7;;
34453;SDS011;60061;52.080;5.312;2022-08-01T04:21:44;11.9;;;7.6;;
34453;SDS011;60061;52.080;5.312;2022-08-01T04:23:31;13.5;;;8.2;;
34453;SDS011;60061;52.080;5.312;2022-08-01T04:27:13;12.0;;;8.0;;
34453;SDS011;60061;52.080;5.312;2022-08-01T04:29:10;13.7;;;8.2;;
34453;SDS011;60061;52.080;5.312;2022-08-01T04:30:59;13.9;;;8.2;;
34453;SDS011;60061;52.080;5.312;2022-08-01T04:32:47;11.1;;;8.1;;
34453;SDS011;60061;52.080;5.312;2022-08-01T04:34:35;15.9;;;8.81;;
34453;SDS011;60061;52.080;5.312;2022-08-01T04:36:25;13.5;;;8.1;;
34453;SDS011;60061;52.080;5.312;2022-08-01T04:38:17;12.3;;;8.4;;
34453;SDS011;60061;52.080;5.312;2022-08-01T04:40:10;12.9;;;8.0;;
34453;SDS011;60061;52.080;5.312;2022-08-01T04:43:46;12.5;;;8.4;;
34453;SDS011;60061;52.080;5.312;2022-08-01T04:45:33;13.2;;;8.5;;
34453;SDS011;60061;52.080;5.312;2022-08-01T04:47:21;13.9;;;8.4;;
34453;SDS011;60061;52.080;5.312;2022-08-01T04:49:09;13.5;;;8.5;;
34453;SDS011;60061;52.080;5.312;2022-08-01T04:50:56;13.1;;;8.5;;
34453;SDS011;60061;52.080;5.312;2022-08-01T04:52:42;14.3;;;9.21;;
34453;SDS011;60061;52.080;5.312;2022-08-01T04:56:18;14.1;;;8.9;;
34453;SDS011;60061;52.080;5.312;2022-08-01T04:58:06;12.8;;;8.71;;
34453;SDS011;60061;52.080;5.312;2022-08-01T04:59:56;12.2;;;8.6;;
34453;SDS011;60061;52.080;5.312;2022-08-01T05:01:47;13.6;;;8.81;;
34453;SDS011;60061;52.080;5.312;2022-08-01T05:03:34;15.6;;;8.71;;
34453;SDS011;60061;52.080;5.312;2022-08-01T05:05:22;12.7;;;8.5;;
34453;SDS011;60061;52.080;5.312;2022-08-01T05:08:56;14.0;;;9.0;;
34453;SDS011;60061;52.080;5.312;2022-08-01T05:10:42;13.3;;;8.81;;
34453;SDS011;60061;52.080;5.312;2022-08-01T05:12:28;14.6;;;8.9;;
34453;SDS011;60061;52.080;5.312;2022-08-01T05:14:15;12.8;;;9.31;;
34453;SDS011;60061;52.080;5.312;2022-08-01T05:16:03;12.1;;;8.4;;
34453;SDS011;60061;52.080;5.312;2022-08-01T05:17:50;10.9;;;8.1;;
34453;SDS011;60061;52.080;5.312;2022-08-01T05:21:25;13.2;;;7.4;;
34453;SDS011;60061;52.080;5.312;2022-08-01T05:23:12;9.81;;;7.2;;
34453;SDS011;60061;52.080;5.312;2022-08-01T05:24:59;11.0;;;6.8;;
34453;SDS011;60061;52.080;5.312;2022-08-01T05:26:45;8.1;;;5.4;;
34453;SDS011;60061;52.080;5.312;2022-08-01T05:32:04;6.6;;;4.8;;
34453;SDS011;60061;52.080;5.312;2022-08-01T05:33:51;7.2;;;4.1;;
34453;SDS011;60061;52.080;5.312;2022-08-01T05:35:37;6.2;;;4.3;;
34453;SDS011;60061;52.080;5.312;2022-08-01T05:37:24;5.7;;;3.6;;
34453;SDS011;60061;52.080;5.312;2022-08-01T05:39:10;5.0;;;3.5;;
34453;SDS011;60061;52.080;5.312;2022-08-01T05:40:57;4.1;;;3.4;;
34453;SDS011;60061;52.080;5.312;2022-08-01T05:44:30;5.2;;;3.5;;
34453;SDS011;60061;52.080;5.312;2022-08-01T05:46:17;6.1;;;3.4;;
34453;SDS011;60061;52.080;5.312;2022-08-01T05:48:04;5.5;;;3.8;;
34453;SDS011;60061;52.080;5.312;2022-08-01T05:49:50;6.0;;;3.8;;
34453;SDS011;60061;52.080;5.312;2022-08-01T05:51:36;4.41;;;3.5;;
34453;SDS011;60061;52.080;5.312;2022-08-01T05:53:22;4.5;;;3.6;;
34453;SDS011;60061;52.080;5.312;2022-08-01T05:56:59;4.41;;;3.9;;
34453;SDS011;60061;52.080;5.312;2022-08-01T05:58:46;5.8;;;3.9;;
34453;SDS011;60061;52.080;5.312;2022-08-01T06:00:33;4.3;;;3.4;;
34453;SDS011;60061;52.080;5.312;2022-08-01T06:02:20;6.0;;;3.7;;
34453;SDS011;60061;52.080;5.312;2022-08-01T06:04:06;5.4;;;3.3;;
34453;SDS011;60061;52.080;5.312;2022-08-01T06:05:52;4.41;;;2.9;;
34453;SDS011;60061;52.080;5.312;2022-08-01T06:09:26;4.0;;;3.1;;
34453;SDS011;60061;52.080;5.312;2022-08-01T06:11:12;4.2;;;3.1;;
34453;SDS011;60061;52.080;5.312;2022-08-01T06:13:02;3.8;;;2.9;;
34453;SDS011;60061;52.080;5.312;2022-08-01T06:14:49;3.2;;;2.8;;
34453;SDS011;60061;52.080;5.312;2022-08-01T06:16:35;3.0;;;2.6;;
34453;SDS011;60061;52.080;5.312;2022-08-01T06:20:09;2.9;;;2.1;;
34453;SDS011;60061;52.080;5.312;2022-08-01T06:21:56;6.5;;;2.7;;
34453;SDS011;60061;52.080;5.312;2022-08-01T06:23:42;2.1;;;1.9;;
34453;SDS011;60061;52.080;5.312;2022-08-01T06:25:28;2.5;;;1.8;;
34453;SDS011;60061;52.080;5.312;2022-08-01T06:27:16;2.4;;;1.6;;
34453;SDS011;60061;52.080;5.312;2022-08-01T06:29:02;4.2;;;2.0;;
34453;SDS011;60061;52.080;5.312;2022-08-01T06:32:36;2.1;;;1.9;;
34453;SDS011;60061;52.080;5.312;2022-08-01T06:34:22;2.21;;;1.9;;
34453;SDS011;60061;52.080;5.312;2022-08-01T06:36:09;2.31;;;2.1;;
34453;SDS011;60061;52.080;5.312;2022-08-01T06:37:55;2.5;;;2.1;;
34453;SDS011;60061;52.080;5.312;2022-08-01T06:39:42;2.5;;;2.0;;
34453;SDS011;60061;52.080;5.312;2022-08-01T06:41:29;5.0;;;3.5;;
34453;SDS011;60061;52.080;5.312;2022-08-01T06:45:02;3.1;;;2.6;;
34453;SDS011;60061;52.080;5.312;2022-08-01T06:46:49;3.3;;;2.21;;
34453;SDS011;60061;52.080;5.312;2022-08-01T06:48:39;3.1;;;2.0;;
34453;SDS011;60061;52.080;5.312;2022-08-01T06:50:25;3.7;;;2.21;;
34453;SDS011;60061;52.080;5.312;2022-08-01T06:52:11;3.0;;;2.1;;
34453;SDS011;60061;52.080;5.312;2022-08-01T06:55:44;2.31;;;1.9;;
34453;SDS011;60061;52.080;5.312;2022-08-01T06:57:30;2.5;;;2.31;;
34453;SDS011;60061;52.080;5.312;2022-08-01T06:59:17;2.4;;;2.0;;
34453;SDS011;60061;52.080;5.312;2022-08-01T07:01:05;2.1;;;1.9;;
34453;SDS011;60061;52.080;5.312;2022-08-01T07:02:53;2.21;;;1.9;;
34453;SDS011;60061;52.080;5.312;2022-08-01T07:04:42;1.9;;;1.8;;
34453;SDS011;60061;52.080;5.312;2022-08-01T07:08:15;2.7;;;2.0;;
34453;SDS011;60061;52.080;5.312;2022-08-01T07:10:03;2.0;;;1.9;;
34453;SDS011;60061;52.080;5.312;2022-08-01T07:11:52;2.6;;;2.0;;
34453;SDS011;60061;52.080;5.312;2022-08-01T07:13:39;2.4;;;1.9;;
34453;SDS011;60061;52.080;5.312;2022-08-01T07:15:26;2.31;;;1.8;;
34453;SDS011;60061;52.080;5.312;2022-08-01T07:17:13;2.5;;;2.0;;
34453;SDS011;60061;52.080;5.312;2022-08-01T07:20:46;2.5;;;2.31;;
34453;SDS011;60061;52.080;5.312;2022-08-01T07:22:32;2.4;;;2.21;;
34453;SDS011;60061;52.080;5.312;2022-08-01T07:24:19;2.31;;;2.1;;
34453;SDS011;60061;52.080;5.312;2022-08-01T07:26:06;2.9;;;2.21;;
34453;SDS011;60061;52.080;5.312;2022-08-01T07:27:53;2.5;;;2.31;;
34453;SDS011;60061;52.080;5.312;2022-08-01T07:29:39;2.5;;;2.21;;
34453;SDS011;60061;52.080;5.312;2022-08-01T07:33:11;2.7;;;2.21;;
34453;SDS011;60061;52.080;5.312;2022-08-01T07:34:58;4.1;;;2.4;;
34453;SDS011;60061;52.080;5.312;2022-08-01T07:36:45;3.0;;;2.31;;
34453;SDS011;60061;52.080;5.312;2022-08-01T07:38:32;2.8;;;2.31;;
34453;SDS011;60061;52.080;5.312;2022-08-01T07:40:19;3.0;;;2.7;;
34453;SDS011;60061;52.080;5.312;2022-08-01T07:43:53;3.8;;;2.31;;
34453;SDS011;60061;52.080;5.312;2022-08-01T07:45:39;3.3;;;2.6;;
34453;SDS011;60061;52.080;5.312;2022-08-01T07:47:27;3.8;;;2.7;;
34453;SDS011;60061;52.080;5.312;2022-08-01T07:49:13;3.5;;;2.5;;
34453;SDS011;60061;52.080;5.312;2022-08-01T07:51:00;4.61;;;2.7;;
34453;SDS011;60061;52.080;5.312;2022-08-01T07:52:46;7.4;;;3.3;;
34453;SDS011;60061;52.080;5.312;2022-08-01T07:56:20;8.4;;;3.4;;
34453;SDS011;60061;52.080;5.312;2022-08-01T07:58:06;11.9;;;4.3;;
34453;SDS011;60061;52.080;5.312;2022-08-01T07:59:53;8.6;;;4.1;;
34453;SDS011;60061;52.080;5.312;2022-08-01T08:01:41;10.1;;;4.1;;
34453;SDS011;60061;52.080;5.312;2022-08-01T08:03:27;13.9;;;4.5;;
34453;SDS011;60061;52.080;5.312;2022-08-01T08:05:14;10.9;;;4.7;;
34453;SDS011;60061;52.080;5.312;2022-08-01T08:08:48;11.3;;;4.61;;
34453;SDS011;60061;52.080;5.312;2022-08-01T08:10:34;13.9;;;5.11;;
34453;SDS011;60061;52.080;5.312;2022-08-01T08:12:20;13.8;;;4.91;;
34453;SDS011;60061;52.080;5.312;2022-08-01T08:14:07;16.11;;;5.8;;
34453;SDS011;60061;52.080;5.312;2022-08-01T08:15:53;16.0;;;5.9;;
34453;SDS011;60061;52.080;5.312;2022-08-01T08:19:26;13.9;;;5.4;;
34453;SDS011;60061;52.080;5.312;2022-08-01T08:21:12;14.0;;;5.6;;
34453;SDS011;60061;52.080;5.312;2022-08-01T08:22:58;16.8;;;5.0;;
34453;SDS011;60061;52.080;5.312;2022-08-01T08:24:45;16.61;;;5.6;;
34453;SDS011;60061;52.080;5.312;2022-08-01T08:26:32;17.5;;;5.7;;
34453;SDS011;60061;52.080;5.312;2022-08-01T08:28:18;16.2;;;5.6;;
34453;SDS011;60061;52.080;5.312;2022-08-01T08:31:55;13.3;;;5.4;;
34453;SDS011;60061;52.080;5.312;2022-08-01T08:33:42;13.7;;;5.5;;
34453;SDS011;60061;52.080;5.312;2022-08-01T08:35:28;15.8;;;5.4;;
34453;SDS011;60061;52.080;5.312;2022-08-01T08:37:16;19.2;;;5.7;;
34453;SDS011;60061;52.080;5.312;2022-08-01T08:39:03;14.3;;;5.6;;
34453;SDS011;60061;52.080;5.312;2022-08-01T08:40:51;17.0;;;5.3;;
34453;SDS011;60061;52.080;5.312;2022-08-01T08:44:26;17.61;;;5.3;;
34453;SDS011;60061;52.080;5.312;2022-08-01T08:46:12;16.11;;;5.11;;
34453;SDS011;60061;52.080;5.312;2022-08-01T08:48:00;15.1;;;5.4;;
34453;SDS011;60061;52.080;5.312;2022-08-01T08:49:48;15.2;;;5.0;;
34453;SDS011;60061;52.080;5.312;2022-08-01T08:51:37;13.5;;;5.2;;
34453;SDS011;60061;52.080;5.312;2022-08-01T08:53:26;13.5;;;5.2;;
34453;SDS011;60061;52.080;5.312;2022-08-01T08:57:03;12.5;;;5.0;;
34453;SDS011;60061;52.080;5.312;2022-08-01T08:58:51;17.91;;;5.4;;
34453;SDS011;60061;52.080;5.312;2022-08-01T09:00:38;13.0;;;5.11;;
34453;SDS011;60061;52.080;5.312;2022-08-01T09:02:25;14.2;;;4.91;;
34453;SDS011;60061;52.080;5.312;2022-08-01T09:04:11;13.5;;;5.11;;
34453;SDS011;60061;52.080;5.312;2022-08-01T09:05:59;13.2;;;4.91;;
34453;SDS011;60061;52.080;5.312;2022-08-01T09:09:32;17.41;;;5.2;;
34453;SDS011;60061;52.080;5.312;2022-08-01T09:11:19;14.8;;;4.91;;
34453;SDS011;60061;52.080;5.312;2022-08-01T09:13:08;12.6;;;4.91;;
34453;SDS011;60061;52.080;5.312;2022-08-01T09:14:57;13.7;;;5.7;;
34453;SDS011;60061;52.080;5.312;2022-08-01T09:16:44;14.1;;;5.3;;
34453;SDS011;60061;52.080;5.312;2022-08-01T09:18:32;13.2;;;5.0;;
34453;SDS011;60061;52.080;5.312;2022-08-01T09:22:10;16.4;;;5.2;;
34453;SDS011;60061;52.080;5.312;2022-08-01T09:24:02;10.9;;;5.0;;
34453;SDS011;60061;52.080;5.312;2022-08-01T09:25:51;15.6;;;5.4;;
34453;SDS011;60061;52.080;5.312;2022-08-01T09:27:39;15.3;;;5.2;;
34453;SDS011;60061;52.080;5.312;2022-08-01T09:29:26;13.2;;;4.91;;
34453;SDS011;60061;52.080;5.312;2022-08-01T09:31:17;10.5;;;4.41;;
34453;SDS011;60061;52.080;5.312;2022-08-01T09:36:46;8.9;;;3.7;;
34453;SDS011;60061;52.080;5.312;2022-08-01T09:38:41;7.6;;;3.7;;
34453;SDS011;60061;52.080;5.312;2022-08-01T09:40:43;10.4;;;3.7;;
34453;SDS011;60061;52.080;5.312;2022-08-01T09:42:30;9.6;;;3.5;;
34453;SDS011;60061;52.080;5.312;2022-08-01T09:44:17;10.21;;;3.9;;
34453;SDS011;60061;52.080;5.312;2022-08-01T09:46:05;9.5;;;3.5;;
34453;SDS011;60061;52.080;5.312;2022-08-01T09:47:55;10.3;;;4.0;;
34453;SDS011;60061;52.080;5.312;2022-08-01T09:51:31;9.71;;;3.4;;
34453;SDS011;60061;52.080;5.312;2022-08-01T09:53:20;9.9;;;3.6;;
34453;SDS011;60061;52.080;5.312;2022-08-01T09:55:07;9.0;;;3.5;;
34453;SDS011;60061;52.080;5.312;2022-08-01T09:56:57;10.9;;;3.7;;
34453;SDS011;60061;52.080;5.312;2022-08-01T09:58:55;9.71;;;3.5;;
34453;SDS011;60061;52.080;5.312;2022-08-01T10:00:43;12.8;;;3.5;;
34453;SDS011;60061;52.080;5.312;2022-08-01T10:02:45;9.5;;;3.7;;
34453;SDS011;60061;52.080;5.312;2022-08-01T10:04:32;8.1;;;3.6;;
34453;SDS011;60061;52.080;5.312;2022-08-01T10:08:07;9.31;;;3.0;;
34453;SDS011;60061;52.080;5.312;2022-08-01T10:09:53;6.4;;;2.7;;
34453;SDS011;60061;52.080;5.312;2022-08-01T10:11:41;10.8;;;3.1;;
34453;SDS011;60061;52.080;5.312;2022-08-01T10:13:30;9.21;;;2.7;;
34453;SDS011;60061;52.080;5.312;2022-08-01T10:15:16;8.2;;;2.8;;
34453;SDS011;60061;52.080;5.312;2022-08-01T10:17:05;9.81;;;3.1;;
34453;SDS011;60061;52.080;5.312;2022-08-01T10:20:42;10.4;;;2.7;;
34453;SDS011;60061;52.080;5.312;2022-08-01T10:22:31;9.31;;;2.7;;
34453;SDS011;60061;52.080;5.312;2022-08-01T10:24:18;9.4;;;2.7;;
34453;SDS011;60061;52.080;5.312;2022-08-01T10:26:06;7.0;;;2.8;;
34453;SDS011;60061;52.080;5.312;2022-08-01T10:27:56;10.21;;;2.9;;
34453;SDS011;60061;52.080;5.312;2022-08-01T10:29:47;6.6;;;2.4;;
34453;SDS011;60061;52.080;5.312;2022-08-01T10:31:39;6.9;;;2.31;;
34453;SDS011;60061;52.080;5.312;2022-08-01T10:35:17;5.8;;;2.1;;
34453;SDS011;60061;52.080;5.312;2022-08-01T10:37:04;8.71;;;2.31;;
34453;SDS011;60061;52.080;5.312;2022-08-01T10:38:53;8.1;;;2.8;;
34453;SDS011;60061;52.080;5.312;2022-08-01T10:40:41;8.1;;;2.21;;
34453;SDS011;60061;52.080;5.312;2022-08-01T10:42:29;5.2;;;2.31;;
34453;SDS011;60061;52.080;5.312;2022-08-01T10:44:15;6.1;;;2.1;;
34453;SDS011;60061;52.080;5.312;2022-08-01T10:47:53;6.1;;;2.1;;
34453;SDS011;60061;52.080;5.312;2022-08-01T10:49:47;6.4;;;2.1;;
34453;SDS011;60061;52.080;5.312;2022-08-01T10:51:39;6.3;;;2.4;;
34453;SDS011;60061;52.080;5.312;2022-08-01T10:53:27;5.7;;;2.4;;
34453;SDS011;60061;52.080;5.312;2022-08-01T10:55:14;7.6;;;2.7;;
34453;SDS011;60061;52.080;5.312;2022-08-01T10:57:00;7.1;;;2.31;;
34453;SDS011;60061;52.080;5.312;2022-08-01T10:58:47;8.2;;;2.4;;
34453;SDS011;60061;52.080;5.312;2022-08-01T11:02:25;8.1;;;2.7;;
34453;SDS011;60061;52.080;5.312;2022-08-01T11:04:14;8.6;;;3.0;;
34453;SDS011;60061;52.080;5.312;2022-08-01T11:06:03;9.31;;;2.9;;
34453;SDS011;60061;52.080;5.312;2022-08-01T11:07:51;8.1;;;2.6;;
34453;SDS011;60061;52.080;5.312;2022-08-01T11:09:40;9.5;;;2.8;;
34453;SDS011;60061;52.080;5.312;2022-08-01T11:11:28;12.6;;;3.3;;
34453;SDS011;60061;52.080;5.312;2022-08-01T11:15:47;8.4;;;3.2;;
34453;SDS011;60061;52.080;5.312;2022-08-01T11:19:21;10.3;;;3.1;;
34453;SDS011;60061;52.080;5.312;2022-08-01T11:21:09;10.6;;;3.0;;
34453;SDS011;60061;52.080;5.312;2022-08-01T11:23:15;8.1;;;3.0;;
34453;SDS011;60061;52.080;5.312;2022-08-01T11:25:02;13.1;;;3.2;;
34453;SDS011;60061;52.080;5.312;2022-08-01T11:27:13;12.2;;;3.1;;
34453;SDS011;60061;52.080;5.312;2022-08-01T11:29:11;9.21;;;3.6;;
34453;SDS011;60061;52.080;5.312;2022-08-01T11:31:34;8.6;;;3.3;;
34453;SDS011;60061;52.080;5.312;2022-08-01T11:33:47;10.7;;;3.4;;
34453;SDS011;60061;52.080;5.312;2022-08-01T11:35:36;10.8;;;2.9;;
34453;SDS011;60061;52.080;5.312;2022-08-01T11:37:24;9.21;;;3.0;;
34453;SDS011;60061;52.080;5.312;2022-08-01T11:39:14;11.4;;;3.3;;
34453;SDS011;60061;52.080;5.312;2022-08-01T11:41:10;10.21;;;3.1;;
34453;SDS011;60061;52.080;5.312;2022-08-01T11:43:31;13.2;;;3.0;;
34453;SDS011;60061;52.080;5.312;2022-08-01T11:45:19;7.7;;;3.1;;
34453;SDS011;60061;52.080;5.312;2022-08-01T11:47:07;9.21;;;2.8;;
34453;SDS011;60061;52.080;5.312;2022-08-01T11:51:15;9.4;;;2.5;;
34453;SDS011;60061;52.080;5.312;2022-08-01T11:54:51;10.6;;;2.4;;
34453;SDS011;60061;52.080;5.312;2022-08-01T11:56:41;6.0;;;2.31;;
34453;SDS011;60061;52.080;5.312;2022-08-01T11:58:28;7.0;;;2.6;;
34453;SDS011;60061;52.080;5.312;2022-08-01T12:00:15;9.0;;;2.5;;
34453;SDS011;60061;52.080;5.312;2022-08-01T12:02:03;7.6;;;2.21;;
34453;SDS011;60061;52.080;5.312;2022-08-01T12:04:00;6.0;;;2.1;;
34453;SDS011;60061;52.080;5.312;2022-08-01T12:05:47;4.91;;;2.21;;
34453;SDS011;60061;52.080;5.312;2022-08-01T12:09:21;10.1;;;2.6;;
34453;SDS011;60061;52.080;5.312;2022-08-01T12:11:08;6.3;;;2.21;;
34453;SDS011;60061;52.080;5.312;2022-08-01T12:12:58;7.0;;;2.4;;
34453;SDS011;60061;52.080;5.312;2022-08-01T12:14:52;5.2;;;2.1;;
34453;SDS011;60061;52.080;5.312;2022-08-01T12:16:40;5.8;;;1.9;;
34453;SDS011;60061;52.080;5.312;2022-08-01T12:18:37;8.0;;;2.1;;
34453;SDS011;60061;52.080;5.312;2022-08-01T12:20:27;5.6;;;2.1;;
34453;SDS011;60061;52.080;5.312;2022-08-01T12:24:02;6.2;;;2.1;;
34453;SDS011;60061;52.080;5.312;2022-08-01T12:25:50;5.9;;;1.9;;
34453;SDS011;60061;52.080;5.312;2022-08-01T12:27:39;6.9;;;1.9;;
34453;SDS011;60061;52.080;5.312;2022-08-01T12:29:34;5.2;;;1.6;;
34453;SDS011;60061;52.080;5.312;2022-08-01T12:31:30;6.2;;;2.1;;
34453;SDS011;60061;52.080;5.312;2022-08-01T12:33:17;3.8;;;1.8;;
34453;SDS011;60061;52.080;5.312;2022-08-01T12:35:06;6.2;;;2.1;;
34453;SDS011;60061;52.080;5.312;2022-08-01T12:38:44;5.3;;;2.0;;
34453;SDS011;60061;52.080;5.312;2022-08-01T12:40:40;5.3;;;2.0;;
34453;SDS011;60061;52.080;5.312;2022-08-01T12:42:29;5.3;;;1.6;;
34453;SDS011;60061;52.080;5.312;2022-08-01T12:44:15;2.4;;;1.4;;
34453;SDS011;60061;52.080;5.312;2022-08-01T12:46:02;4.1;;;1.6;;
34453;SDS011;60061;52.080;5.312;2022-08-01T12:47:49;2.4;;;1.4;;
34453;SDS011;60061;52.080;5.312;2022-08-01T12:49:38;3.6;;;1.5;;
34453;SDS011;60061;52.080;5.312;2022-08-01T12:53:14;4.41;;;1.4;;
34453;SDS011;60061;52.080;5.312;2022-08-01T12:55:04;3.0;;;1.4;;
34453;SDS011;60061;52.080;5.312;2022-08-01T12:56:57;5.9;;;1.7;;
34453;SDS011;60061;52.080;5.312;2022-08-01T12:58:43;3.7;;;1.3;;
34453;SDS011;60061;52.080;5.312;2022-08-01T13:00:29;3.7;;;1.2;;